createdAt,value
2022-09-14T00:01:08.221Z,3.47
2022-09-14T00:03:38.758Z,3.22
2022-09-14T00:06:07.739Z,3.35
2022-09-14T00:08:36.215Z,3.03
2022-09-14T00:11:11.879Z,3.00
2022-09-14T00:13:40.304Z,3.05
2022-09-14T00:16:09.768Z,3.40
2022-09-14T00:18:37.486Z,3.42
2022-09-14T00:21:06.778Z,3.20
2022-09-14T00:23:37.819Z,3.10
2022-09-14T00:26:10.031Z,3.33
2022-09-14T00:28:41.516Z,3.22
2022-09-14T00:31:09.646Z,2.88
2022-09-14T00:33:38.271Z,3.15
2022-09-14T00:36:06.987Z,3.22
2022-09-14T00:38:34.548Z,3.10
2022-09-14T00:41:02.904Z,3.03
2022-09-14T00:43:30.586Z,2.88
2022-09-14T00:46:01.032Z,3.05
2022-09-14T00:48:29.855Z,2.67
2022-09-14T00:50:57.418Z,3.17
2022-09-14T00:53:25.025Z,3.28
2022-09-14T00:55:54.160Z,3.10
2022-09-14T00:58:21.895Z,3.10
2022-09-14T01:00:49.445Z,3.33
2022-09-14T01:03:17.169Z,2.97
2022-09-14T01:06:10.888Z,3.10
2022-09-14T01:08:46.162Z,2.75
2022-09-14T01:11:16.790Z,2.80
2022-09-14T01:13:56.511Z,2.90
2022-09-14T01:16:48.419Z,3.67
2022-09-14T01:19:24.087Z,3.08
2022-09-14T01:21:52.897Z,3.00
2022-09-14T01:24:28.465Z,2.40
2022-09-14T01:27:02.085Z,3.25
2022-09-14T01:29:41.035Z,3.20
2022-09-14T01:32:08.532Z,3.50
2022-09-14T01:34:41.804Z,2.90
2022-09-14T01:37:19.876Z,2.90
2022-09-14T01:39:50.724Z,2.95
2022-09-14T01:42:19.394Z,3.45
2022-09-14T01:44:49.782Z,2.90
2022-09-14T01:47:17.300Z,3.25
2022-09-14T01:49:47.552Z,3.00
2022-09-14T01:52:17.347Z,3.08
2022-09-14T01:54:48.549Z,2.72
2022-09-14T01:57:18.027Z,2.97
2022-09-14T01:59:46.897Z,2.78
2022-09-14T02:02:20.578Z,2.80
2022-09-14T02:05:05.212Z,2.70
2022-09-14T02:07:33.063Z,3.08
2022-09-14T02:10:01.107Z,2.78
2022-09-14T02:12:28.731Z,2.42
2022-09-14T02:14:56.286Z,2.58
2022-09-14T02:17:23.959Z,2.35
2022-09-14T02:19:57.091Z,2.75
2022-09-14T02:22:26.704Z,2.35
2022-09-14T02:24:54.652Z,2.70
2022-09-14T02:27:22.543Z,2.63
2022-09-14T02:29:50.371Z,2.80
2022-09-14T02:32:20.944Z,2.67
2022-09-14T02:34:48.475Z,2.70
2022-09-14T02:37:19.299Z,2.60
2022-09-14T02:40:16.116Z,2.40
2022-09-14T02:43:16.095Z,2.75
2022-09-14T02:45:49.109Z,2.75
2022-09-14T02:48:23.488Z,2.40
2022-09-14T02:50:51.102Z,2.13
2022-09-14T02:53:25.407Z,2.20
2022-09-14T02:55:54.721Z,2.35
2022-09-14T02:58:22.250Z,1.98
2022-09-14T03:00:50.801Z,2.22
2022-09-14T03:03:19.981Z,2.28
2022-09-14T03:05:48.078Z,2.05
2022-09-14T03:08:15.633Z,2.40
2022-09-14T03:10:44.520Z,1.80
2022-09-14T03:13:12.237Z,2.15
2022-09-14T03:15:39.839Z,2.00
2022-09-14T03:18:12.302Z,2.20
2022-09-14T03:20:41.963Z,2.10
2022-09-14T03:23:11.012Z,1.90
2022-09-14T03:25:39.970Z,1.88
2022-09-14T03:28:07.985Z,2.03
2022-09-14T03:30:35.575Z,1.70
2022-09-14T03:33:03.259Z,1.80
2022-09-14T03:35:31.720Z,1.80
2022-09-14T03:37:59.780Z,1.58
2022-09-14T03:40:27.902Z,2.22
2022-09-14T03:42:55.744Z,1.67
2022-09-14T03:45:23.450Z,1.80
2022-09-14T03:47:51.075Z,1.50
2022-09-14T03:50:19.503Z,1.50
2022-09-14T03:52:47.084Z,2.05
2022-09-14T03:55:14.751Z,1.75
2022-09-14T03:57:42.317Z,1.65
2022-09-14T04:00:10.371Z,1.70
2022-09-14T04:02:41.545Z,1.90
2022-09-14T04:05:09.201Z,1.40
2022-09-14T04:07:36.830Z,1.60
2022-09-14T04:10:05.627Z,1.50
2022-09-14T04:12:39.523Z,1.40
2022-09-14T04:15:07.775Z,1.58
2022-09-14T04:17:35.438Z,1.25
2022-09-14T04:20:03.223Z,1.42
2022-09-14T04:22:30.743Z,1.38
2022-09-14T04:24:58.278Z,1.50
2022-09-14T04:27:25.899Z,1.60
2022-09-14T04:29:53.450Z,1.40
2022-09-14T04:32:20.997Z,1.52
2022-09-14T04:34:49.603Z,1.30
2022-09-14T04:37:17.243Z,1.35
2022-09-14T04:39:44.802Z,1.83
2022-09-14T04:42:12.499Z,1.27
2022-09-14T04:44:40.069Z,1.27
2022-09-14T04:47:07.642Z,1.30
2022-09-14T04:49:35.162Z,1.40
2022-09-14T04:52:03.090Z,1.23
2022-09-14T04:54:30.602Z,1.60
2022-09-14T04:56:58.248Z,1.50
2022-09-14T04:59:25.785Z,1.80
2022-09-14T05:01:53.515Z,1.60
2022-09-14T05:04:21.112Z,1.70
2022-09-14T05:06:50.100Z,1.42
2022-09-14T05:09:18.949Z,1.30
2022-09-14T05:11:47.046Z,1.20
2022-09-14T05:14:14.978Z,1.45
2022-09-14T05:16:43.565Z,1.60
2022-09-14T05:19:15.366Z,1.50
2022-09-14T05:21:43.075Z,1.27
2022-09-14T05:24:14.508Z,1.30
2022-09-14T05:26:43.302Z,1.50
2022-09-14T05:29:13.031Z,1.48
2022-09-14T05:31:40.808Z,1.40
2022-09-14T05:34:09.654Z,1.52
2022-09-14T05:36:37.992Z,1.55
2022-09-14T05:39:06.099Z,1.30
2022-09-14T05:41:33.699Z,1.67
2022-09-14T05:44:01.402Z,1.77
2022-09-14T05:46:29.020Z,1.63
2022-09-14T05:48:56.626Z,1.90
2022-09-14T05:51:25.191Z,1.33
2022-09-14T05:53:54.029Z,1.40
2022-09-14T05:56:22.453Z,1.70
2022-09-14T05:58:50.202Z,1.25
2022-09-14T06:01:19.407Z,1.85
2022-09-14T06:03:47.331Z,1.55
2022-09-14T06:06:16.146Z,2.08
2022-09-14T06:08:44.018Z,1.60
2022-09-14T06:11:13.371Z,1.80
2022-09-14T06:13:41.357Z,1.70
2022-09-14T06:16:10.305Z,1.70
2022-09-14T06:18:38.417Z,1.83
2022-09-14T06:21:06.645Z,1.95
2022-09-14T06:23:34.687Z,1.75
2022-09-14T06:26:02.848Z,1.92
2022-09-14T06:28:32.107Z,1.58
2022-09-14T06:30:59.734Z,1.75
2022-09-14T06:33:27.421Z,1.75
2022-09-14T06:36:07.398Z,1.88
2022-09-14T06:38:34.903Z,1.70
2022-09-14T06:41:08.912Z,1.90
2022-09-14T06:43:40.298Z,1.52
2022-09-14T06:46:10.348Z,1.90
2022-09-14T06:48:39.158Z,2.38
2022-09-14T06:51:32.757Z,1.60
2022-09-14T06:54:00.906Z,1.70
2022-09-14T06:56:29.244Z,1.70
2022-09-14T06:58:58.387Z,2.00
2022-09-14T07:01:26.723Z,1.42
2022-09-14T07:03:54.561Z,1.60
2022-09-14T07:06:23.526Z,1.75
2022-09-14T07:08:51.906Z,1.52
2022-09-14T07:11:25.643Z,1.63
2022-09-14T07:13:54.622Z,1.60
2022-09-14T07:16:22.372Z,1.60
2022-09-14T07:18:53.124Z,1.50
2022-09-14T07:21:21.193Z,1.73
2022-09-14T07:23:48.995Z,1.40
2022-09-14T07:26:20.506Z,1.60
2022-09-14T07:28:49.034Z,2.03
2022-09-14T07:31:24.910Z,1.77
2022-09-14T07:33:54.739Z,1.60
2022-09-14T07:36:22.942Z,1.80
2022-09-14T07:38:53.015Z,1.50
2022-09-14T07:41:21.702Z,1.60
2022-09-14T07:43:50.089Z,1.77
2022-09-14T07:46:17.840Z,1.92
2022-09-14T07:48:45.419Z,2.00
2022-09-14T07:51:14.186Z,1.88
2022-09-14T07:53:43.345Z,1.77
2022-09-14T07:56:11.843Z,1.80
2022-09-14T07:58:39.702Z,1.92
2022-09-14T08:01:12.000Z,1.60
2022-09-14T08:03:40.498Z,1.80
2022-09-14T08:06:09.608Z,1.42
2022-09-14T08:08:38.443Z,1.70
2022-09-14T08:11:11.007Z,1.58
2022-09-14T08:13:39.436Z,1.70
2022-09-14T08:16:07.113Z,1.65
2022-09-14T08:18:35.688Z,2.42
2022-09-14T08:21:06.969Z,1.40
2022-09-14T08:23:35.179Z,1.20
2022-09-14T08:26:06.700Z,1.48
2022-09-14T08:28:34.341Z,1.73
2022-09-14T08:31:06.094Z,2.20
2022-09-14T08:36:01.151Z,1.23
2022-09-14T08:38:29.138Z,1.42
2022-09-14T08:40:57.420Z,1.30
2022-09-14T08:43:26.357Z,1.55
2022-09-14T08:45:58.414Z,1.38
2022-09-14T08:48:27.731Z,1.58
2022-09-14T08:50:55.604Z,1.50
2022-09-14T08:53:23.510Z,1.33
2022-09-14T08:56:04.420Z,1.80
2022-09-14T08:58:31.866Z,1.38
2022-09-14T09:01:24.042Z,1.40
2022-09-14T09:03:54.337Z,1.80
2022-09-14T09:06:24.814Z,1.50
2022-09-14T09:09:12.209Z,1.45
2022-09-14T09:11:44.389Z,1.40
2022-09-14T09:14:18.971Z,1.58
2022-09-14T09:16:48.151Z,1.67
2022-09-14T09:19:20.306Z,1.13
2022-09-14T09:21:48.927Z,1.33
2022-09-14T09:24:25.223Z,1.40
2022-09-14T09:26:52.719Z,1.05
2022-09-14T09:29:20.251Z,1.65
2022-09-14T09:32:08.698Z,1.30
2022-09-14T09:34:54.995Z,1.52
2022-09-14T09:37:38.148Z,1.40
2022-09-14T09:40:27.696Z,1.30
2022-09-14T09:43:04.770Z,1.63
2022-09-14T09:45:47.533Z,1.40
2022-09-14T09:48:15.863Z,1.90
2022-09-14T09:51:12.610Z,1.52
2022-09-14T09:53:47.902Z,1.60
2022-09-14T09:56:23.854Z,1.55
2022-09-14T09:58:52.050Z,1.50
2022-09-14T10:01:21.840Z,1.60
2022-09-14T10:04:16.708Z,1.40
2022-09-14T10:06:48.698Z,1.65
2022-09-14T10:09:18.717Z,1.60
2022-09-14T10:11:47.048Z,1.95
2022-09-14T10:14:26.642Z,1.60
2022-09-14T10:16:54.349Z,1.50
2022-09-14T10:19:27.991Z,1.65
2022-09-14T10:22:11.539Z,1.48
2022-09-14T10:24:41.134Z,1.30
2022-09-14T10:27:28.632Z,1.63
2022-09-14T10:29:56.432Z,2.20
2022-09-14T10:32:25.556Z,1.58
2022-09-14T10:34:53.559Z,1.42
2022-09-14T10:37:21.142Z,1.45
2022-09-14T10:39:58.879Z,1.60
2022-09-14T10:42:29.449Z,1.50
2022-09-14T10:44:59.814Z,1.77
2022-09-14T10:47:36.286Z,1.67
2022-09-14T10:50:15.816Z,1.88
2022-09-14T10:53:06.499Z,1.55
2022-09-14T10:55:43.796Z,1.23
2022-09-14T10:58:21.307Z,1.60
2022-09-14T11:01:00.003Z,1.55
2022-09-14T11:03:36.496Z,1.70
2022-09-14T11:06:22.260Z,1.50
2022-09-14T11:08:56.755Z,1.88
2022-09-14T11:11:38.028Z,1.98
2022-09-14T11:14:05.633Z,1.73
2022-09-14T11:16:47.710Z,1.90
2022-09-14T11:19:15.186Z,1.42
2022-09-14T11:22:04.104Z,1.90
2022-09-14T11:24:36.166Z,2.00
2022-09-14T11:27:06.593Z,1.90
2022-09-14T11:29:38.898Z,1.52
2022-09-14T11:32:22.449Z,1.63
2022-09-14T11:35:13.548Z,1.70
2022-09-14T11:37:43.327Z,2.08
2022-09-14T11:40:31.370Z,1.50
2022-09-14T11:43:03.984Z,1.83
2022-09-14T11:45:35.214Z,1.55
2022-09-14T11:48:42.393Z,1.63
2022-09-14T11:51:23.867Z,1.40
2022-09-14T11:53:51.668Z,1.33
2022-09-14T11:56:27.133Z,1.50
2022-09-14T11:58:55.831Z,1.70
2022-09-14T12:01:36.733Z,1.52
2022-09-14T12:04:17.618Z,1.52
2022-09-14T12:06:47.886Z,1.73
2022-09-14T12:09:20.862Z,1.37
2022-09-14T12:11:53.690Z,1.48
2022-09-14T12:14:27.463Z,1.35
2022-09-14T12:17:22.734Z,1.40
2022-09-14T12:19:57.454Z,1.30
2022-09-14T12:22:34.415Z,1.33
2022-09-14T12:25:25.098Z,1.30
2022-09-14T12:27:52.794Z,1.10
2022-09-14T12:30:40.982Z,1.33
2022-09-14T12:33:27.510Z,1.85
2022-09-14T12:35:55.076Z,1.52
2022-09-14T12:38:31.667Z,1.50
2022-09-14T12:41:11.207Z,1.38
2022-09-14T12:43:41.584Z,1.48
2022-09-14T12:46:10.708Z,1.43
2022-09-14T12:48:47.243Z,1.20
2022-09-14T12:51:23.590Z,1.17
2022-09-14T12:53:59.116Z,1.42
2022-09-14T12:56:27.161Z,1.27
2022-09-14T12:59:15.034Z,1.40
2022-09-14T13:01:52.000Z,1.52
2022-09-14T13:04:25.851Z,1.20
2022-09-14T13:06:54.274Z,1.60
2022-09-14T13:09:23.011Z,1.60
2022-09-14T13:11:59.714Z,1.70
2022-09-14T13:14:30.597Z,2.25
2022-09-14T13:17:00.636Z,1.67
2022-09-14T13:19:30.328Z,1.50
2022-09-14T13:21:59.125Z,1.42
2022-09-14T13:24:30.931Z,1.50
2022-09-14T13:27:00.293Z,1.52
2022-09-14T13:29:28.179Z,1.42
2022-09-14T13:32:02.379Z,1.80
2022-09-14T13:34:34.251Z,1.55
2022-09-14T13:37:01.912Z,1.45
2022-09-14T13:39:31.043Z,1.90
2022-09-14T13:41:58.895Z,1.67
2022-09-14T13:44:35.272Z,1.83
2022-09-14T13:47:04.751Z,1.70
2022-09-14T13:49:32.415Z,1.67
2022-09-14T13:52:18.952Z,1.73
2022-09-14T13:54:47.647Z,1.73
2022-09-14T13:57:16.912Z,1.77
2022-09-14T14:00:03.133Z,1.67
2022-09-14T14:02:33.484Z,1.63
2022-09-14T14:05:01.277Z,1.75
2022-09-14T14:07:33.906Z,1.60
2022-09-14T14:10:04.041Z,1.70
2022-09-14T14:12:36.860Z,1.67
2022-09-14T14:15:09.001Z,1.92
2022-09-14T14:17:37.868Z,1.83
2022-09-14T14:20:24.005Z,1.70
2022-09-14T14:22:56.111Z,1.83
2022-09-14T14:25:46.043Z,1.92
2022-09-14T14:28:24.515Z,1.60
2022-09-14T14:30:53.220Z,1.70
2022-09-14T14:33:21.042Z,1.42
2022-09-14T14:35:49.192Z,1.77
2022-09-14T14:38:16.801Z,1.60
2022-09-14T14:40:45.997Z,1.77
2022-09-14T14:43:26.860Z,1.42
2022-09-14T14:45:58.611Z,1.48
2022-09-14T14:48:27.095Z,1.75
2022-09-14T14:50:55.585Z,1.30
2022-09-14T14:53:26.379Z,1.48
2022-09-14T14:55:54.005Z,1.42
2022-09-14T14:58:22.323Z,1.38
2022-09-14T15:00:50.217Z,1.40
2022-09-14T15:03:19.316Z,1.42
2022-09-14T15:05:47.967Z,1.48
2022-09-14T15:08:16.782Z,1.80
2022-09-14T15:10:44.677Z,1.48
2022-09-14T15:13:12.829Z,1.52
2022-09-14T15:15:42.791Z,1.27
2022-09-14T15:18:10.640Z,1.42
2022-09-14T15:20:38.276Z,1.58
2022-09-14T15:23:05.980Z,1.30
2022-09-14T15:25:33.660Z,1.30
2022-09-14T15:28:01.240Z,1.33
2022-09-14T15:30:28.807Z,1.05
2022-09-14T15:32:56.442Z,1.50
2022-09-14T15:35:24.302Z,1.27
2022-09-14T15:37:51.825Z,1.20
2022-09-14T15:40:19.411Z,1.00
2022-09-14T15:42:47.025Z,1.20
2022-09-14T15:45:14.754Z,0.95
2022-09-14T15:47:42.974Z,1.30
2022-09-14T15:50:11.665Z,1.35
2022-09-14T15:52:39.399Z,2.08
2022-09-14T15:55:07.906Z,2.30
2022-09-14T15:57:35.812Z,2.38
2022-09-14T16:00:06.014Z,1.98
2022-09-14T16:02:41.124Z,2.15
2022-09-14T16:05:09.015Z,2.58
2022-09-14T16:07:36.579Z,2.30
2022-09-14T16:10:04.358Z,2.47
2022-09-14T16:12:31.894Z,2.67
2022-09-14T16:14:59.783Z,2.60
2022-09-14T16:17:27.405Z,2.28
2022-09-14T16:19:54.915Z,3.30
2022-09-14T16:22:22.458Z,2.42
2022-09-14T16:24:50.026Z,2.80
2022-09-14T16:27:17.807Z,2.95
2022-09-14T16:29:45.439Z,2.72
2022-09-14T16:32:12.962Z,3.05
2022-09-14T16:34:40.558Z,3.05
2022-09-14T16:37:08.365Z,3.20
2022-09-14T16:39:36.052Z,2.83
2022-09-14T16:42:03.591Z,2.88
2022-09-14T16:44:31.226Z,3.53
2022-09-14T16:46:59.011Z,2.78
2022-09-14T16:49:28.352Z,3.05
2022-09-14T16:51:56.969Z,3.17
2022-09-14T16:54:25.881Z,3.13
2022-09-14T16:56:57.028Z,2.75
2022-09-14T16:59:24.790Z,3.05
2022-09-14T17:01:54.978Z,3.20
2022-09-14T17:04:23.916Z,3.10
2022-09-14T17:06:52.194Z,3.55
2022-09-14T17:09:21.047Z,3.10
2022-09-14T17:11:48.906Z,3.50
2022-09-14T17:14:18.208Z,3.35
2022-09-14T17:16:46.026Z,3.70
2022-09-14T17:19:13.659Z,4.07
2022-09-14T17:21:41.888Z,3.38
2022-09-14T17:24:09.907Z,3.78
2022-09-14T17:26:38.002Z,4.20
2022-09-14T17:29:06.708Z,3.45
2022-09-14T17:31:38.600Z,3.47
2022-09-14T17:36:33.607Z,4.18
2022-09-14T17:39:02.351Z,4.20
2022-09-14T17:41:32.347Z,3.88
2022-09-14T17:44:01.178Z,3.80
2022-09-14T17:46:29.197Z,4.30
2022-09-14T17:49:00.463Z,3.58
2022-09-14T17:51:29.273Z,3.72
2022-09-14T17:53:57.764Z,3.60
2022-09-14T17:56:26.551Z,3.90
2022-09-14T17:59:01.038Z,3.35
2022-09-14T18:01:28.682Z,2.75
2022-09-14T18:03:57.956Z,2.88
2022-09-14T18:06:27.599Z,2.85
2022-09-14T18:08:56.255Z,2.88
2022-09-14T18:11:24.339Z,3.05
2022-09-14T18:13:52.425Z,3.05
2022-09-14T18:16:21.742Z,3.05
2022-09-14T18:18:49.718Z,2.35
2022-09-14T18:21:18.530Z,2.85
2022-09-14T18:23:50.171Z,2.40
2022-09-14T18:26:18.235Z,2.85
2022-09-14T18:28:46.098Z,2.30
2022-09-14T18:31:16.411Z,2.45
2022-09-14T18:33:48.327Z,2.53
2022-09-14T18:38:43.526Z,2.70
2022-09-14T18:41:11.705Z,2.20
2022-09-14T18:43:42.685Z,3.13
2022-09-14T18:46:10.295Z,2.83
2022-09-14T18:48:38.743Z,2.47
2022-09-14T18:51:06.480Z,2.10
2022-09-14T18:53:34.190Z,2.20
2022-09-14T18:56:02.828Z,2.28
2022-09-14T18:58:34.062Z,2.70
2022-09-14T19:01:03.245Z,2.10
2022-09-14T19:03:31.793Z,2.05
2022-09-14T19:05:59.482Z,2.22
2022-09-14T19:08:28.846Z,2.15
2022-09-14T19:10:56.412Z,2.13
2022-09-14T19:13:23.940Z,2.55
2022-09-14T19:15:51.507Z,2.30
2022-09-14T19:18:19.107Z,2.40
2022-09-14T19:21:06.028Z,2.20
2022-09-14T19:23:35.010Z,2.28
2022-09-14T19:26:14.565Z,2.58
2022-09-14T19:28:42.547Z,2.45
2022-09-14T19:31:12.505Z,2.58
2022-09-14T19:33:45.062Z,2.50
2022-09-14T19:36:14.609Z,2.40
2022-09-14T19:38:42.308Z,2.30
2022-09-14T19:41:10.995Z,2.20
2022-09-14T19:43:38.621Z,2.15
2022-09-14T19:46:10.196Z,2.53
2022-09-14T19:48:37.992Z,2.38
2022-09-14T19:51:07.440Z,2.40
2022-09-14T19:53:36.146Z,2.40
2022-09-14T19:56:05.066Z,2.30
2022-09-14T19:58:39.615Z,2.60
2022-09-14T20:01:07.526Z,2.90
2022-09-14T20:03:36.759Z,2.35
2022-09-14T20:06:05.711Z,2.78
2022-09-14T20:08:33.739Z,2.45
2022-09-14T20:11:13.957Z,2.97
2022-09-14T20:13:44.384Z,2.47
2022-09-14T20:16:13.198Z,2.53
2022-09-14T20:18:41.716Z,2.90
2022-09-14T20:21:10.343Z,2.92
2022-09-14T20:23:48.627Z,2.95
2022-09-14T20:26:26.706Z,2.85
2022-09-14T20:28:55.181Z,2.53
2022-09-14T20:31:23.091Z,2.63
2022-09-14T20:33:50.941Z,2.75
2022-09-14T20:36:19.468Z,2.88
2022-09-14T20:38:50.300Z,2.60
2022-09-14T20:41:18.815Z,2.83
2022-09-14T20:43:46.506Z,2.80
2022-09-14T20:46:17.053Z,2.95
2022-09-14T20:48:45.079Z,2.78
2022-09-14T20:51:15.176Z,3.20
2022-09-14T20:53:46.575Z,2.50
2022-09-14T20:56:15.757Z,2.42
2022-09-14T20:58:43.603Z,2.95
2022-09-14T21:01:12.589Z,2.97
2022-09-14T21:03:42.069Z,2.95
2022-09-14T21:06:14.437Z,2.70
2022-09-14T21:08:42.494Z,2.88
2022-09-14T21:11:17.322Z,2.90
2022-09-14T21:13:45.096Z,2.50
2022-09-14T21:16:14.208Z,2.80
2022-09-14T21:18:42.155Z,2.70
2022-09-14T21:21:11.988Z,2.47
2022-09-14T21:23:39.959Z,2.58
2022-09-14T21:26:08.093Z,2.67
2022-09-14T21:28:36.372Z,2.33
2022-09-14T21:31:07.055Z,2.70
2022-09-14T21:33:35.610Z,2.42
2022-09-14T21:36:10.808Z,2.60
2022-09-14T21:38:38.401Z,2.63
2022-09-14T21:41:07.486Z,2.58
2022-09-14T21:43:38.753Z,2.30
2022-09-14T21:46:06.901Z,2.20
2022-09-14T21:48:34.784Z,2.30
2022-09-14T21:51:09.100Z,1.98
2022-09-14T21:53:36.882Z,1.70
2022-09-14T21:56:05.671Z,2.10
2022-09-14T21:58:33.522Z,2.10
2022-09-14T22:01:02.552Z,1.90
2022-09-14T22:03:30.436Z,2.13
2022-09-14T22:06:01.911Z,2.22
2022-09-14T22:08:31.099Z,2.15
2022-09-14T22:11:06.529Z,1.95
2022-09-14T22:13:34.418Z,1.90
2022-09-14T22:16:08.114Z,1.92
2022-09-14T22:18:36.771Z,2.05
2022-09-14T22:21:04.866Z,1.80
2022-09-14T22:23:33.354Z,2.08
2022-09-14T22:26:02.658Z,2.00
2022-09-14T22:28:30.872Z,1.83
2022-09-14T22:30:58.630Z,1.40
2022-09-14T22:33:26.228Z,1.50
2022-09-14T22:35:58.395Z,1.70
2022-09-14T22:38:26.819Z,1.83
2022-09-14T22:40:58.191Z,1.50
2022-09-14T22:43:26.327Z,1.55
2022-09-14T22:45:54.024Z,1.63
2022-09-14T22:48:22.171Z,1.20
2022-09-14T22:50:50.886Z,1.50
2022-09-14T22:53:18.738Z,1.50
2022-09-14T22:55:46.800Z,1.33
2022-09-14T22:58:15.111Z,1.48
2022-09-14T23:00:43.683Z,1.40
2022-09-14T23:03:12.087Z,1.50
2022-09-14T23:05:40.593Z,1.38
2022-09-14T23:08:08.676Z,1.50
2022-09-14T23:10:39.103Z,1.55
2022-09-14T23:13:06.705Z,1.50
2022-09-14T23:15:37.611Z,1.63
2022-09-14T23:18:05.282Z,1.80
2022-09-14T23:20:33.127Z,1.60
2022-09-14T23:23:00.651Z,1.70
2022-09-14T23:25:29.175Z,1.42
2022-09-14T23:27:56.890Z,1.73
2022-09-14T23:30:24.453Z,1.70
2022-09-14T23:32:52.042Z,1.70
2022-09-14T23:35:19.639Z,1.45
2022-09-14T23:37:47.302Z,1.90
2022-09-14T23:40:15.002Z,1.67
2022-09-14T23:42:42.555Z,1.50
2022-09-14T23:45:10.675Z,1.88
2022-09-14T23:47:38.616Z,1.52
2022-09-14T23:50:06.909Z,1.77
2022-09-14T23:52:34.442Z,1.90
2022-09-14T23:55:01.993Z,1.60
2022-09-14T23:57:29.650Z,1.52
2022-09-14T23:59:58.446Z,1.70
